sensor_id;sensor_type;location;lat;lon;timestamp;P1;durP1;ratioP1;P2;durP2;ratioP2
47844;SDS011;33605;48.822;8.796;2023-02-28T00:00:23;5.03;;;3.70;;
47844;SDS011;33605;48.822;8.796;2023-02-28T00:02:49;3.93;;;3.40;;
47844;SDS011;33605;48.822;8.796;2023-02-28T00:05:16;6.67;;;3.63;;
47844;SDS011;33605;48.822;8.796;2023-02-28T00:07:43;4.73;;;4.03;;
47844;SDS011;33605;48.822;8.796;2023-02-28T00:10:10;8.37;;;3.93;;
47844;SDS011;33605;48.822;8.796;2023-02-28T00:12:38;6.83;;;4.57;;
47844;SDS011;33605;48.822;8.796;2023-02-28T00:15:07;3.53;;;3.20;;
47844;SDS011;33605;48.822;8.796;2023-02-28T00:17:35;6.93;;;5.87;;
47844;SDS011;33605;48.822;8.796;2023-02-28T00:20:02;7.97;;;7.17;;
47844;SDS011;33605;48.822;8.796;2023-02-28T00:22:29;9.47;;;8.33;;
47844;SDS011;33605;48.822;8.796;2023-02-28T00:24:55;11.30;;;10.20;;
47844;SDS011;33605;48.822;8.796;2023-02-28T00:27:21;9.23;;;8.33;;
47844;SDS011;33605;48.822;8.796;2023-02-28T00:29:47;9.63;;;8.57;;
47844;SDS011;33605;48.822;8.796;2023-02-28T00:32:12;60.33;;;37.37;;
47844;SDS011;33605;48.822;8.796;2023-02-28T00:34:38;69.10;;;39.07;;
47844;SDS011;33605;48.822;8.796;2023-02-28T00:37:05;72.77;;;46.30;;
47844;SDS011;33605;48.822;8.796;2023-02-28T00:39:35;22.57;;;18.90;;
47844;SDS011;33605;48.822;8.796;2023-02-28T00:42:02;14.87;;;13.20;;
47844;SDS011;33605;48.822;8.796;2023-02-28T00:44:29;10.93;;;10.03;;
47844;SDS011;33605;48.822;8.796;2023-02-28T00:46:55;6.23;;;5.60;;
47844;SDS011;33605;48.822;8.796;2023-02-28T00:49:22;5.80;;;4.10;;
47844;SDS011;33605;48.822;8.796;2023-02-28T00:51:48;7.80;;;4.23;;
47844;SDS011;33605;48.822;8.796;2023-02-28T00:54:14;5.27;;;3.73;;
47844;SDS011;33605;48.822;8.796;2023-02-28T00:56:40;4.33;;;3.93;;
47844;SDS011;33605;48.822;8.796;2023-02-28T00:59:06;4.03;;;3.73;;
47844;SDS011;33605;48.822;8.796;2023-02-28T01:01:33;5.90;;;4.20;;
47844;SDS011;33605;48.822;8.796;2023-02-28T01:03:58;4.90;;;4.00;;
47844;SDS011;33605;48.822;8.796;2023-02-28T01:06:24;3.33;;;3.03;;
47844;SDS011;33605;48.822;8.796;2023-02-28T01:08:49;4.47;;;3.73;;
47844;SDS011;33605;48.822;8.796;2023-02-28T01:11:16;4.50;;;4.07;;
47844;SDS011;33605;48.822;8.796;2023-02-28T01:13:43;7.63;;;4.60;;
47844;SDS011;33605;48.822;8.796;2023-02-28T01:16:10;4.73;;;3.80;;
47844;SDS011;33605;48.822;8.796;2023-02-28T01:18:36;4.87;;;4.47;;
47844;SDS011;33605;48.822;8.796;2023-02-28T01:21:10;4.83;;;4.10;;
47844;SDS011;33605;48.822;8.796;2023-02-28T01:23:37;4.03;;;3.63;;
47844;SDS011;33605;48.822;8.796;2023-02-28T01:26:10;5.40;;;4.33;;
47844;SDS011;33605;48.822;8.796;2023-02-28T01:28:38;4.47;;;3.80;;
47844;SDS011;33605;48.822;8.796;2023-02-28T01:31:04;4.97;;;4.37;;
47844;SDS011;33605;48.822;8.796;2023-02-28T01:33:31;4.30;;;3.87;;
47844;SDS011;33605;48.822;8.796;2023-02-28T01:35:58;6.17;;;4.53;;
47844;SDS011;33605;48.822;8.796;2023-02-28T01:38:24;6.73;;;3.80;;
47844;SDS011;33605;48.822;8.796;2023-02-28T01:40:50;6.17;;;3.80;;
47844;SDS011;33605;48.822;8.796;2023-02-28T01:43:26;4.47;;;4.00;;
47844;SDS011;33605;48.822;8.796;2023-02-28T01:45:54;4.93;;;4.10;;
47844;SDS011;33605;48.822;8.796;2023-02-28T01:48:22;4.43;;;4.03;;
47844;SDS011;33605;48.822;8.796;2023-02-28T01:50:53;4.17;;;3.73;;
47844;SDS011;33605;48.822;8.796;2023-02-28T01:53:25;4.73;;;4.33;;
47844;SDS011;33605;48.822;8.796;2023-02-28T01:55:56;6.23;;;4.03;;
47844;SDS011;33605;48.822;8.796;2023-02-28T01:58:22;5.70;;;4.13;;
47844;SDS011;33605;48.822;8.796;2023-02-28T02:00:48;6.60;;;4.33;;
47844;SDS011;33605;48.822;8.796;2023-02-28T02:03:15;4.27;;;3.87;;
47844;SDS011;33605;48.822;8.796;2023-02-28T02:05:46;5.93;;;4.13;;
47844;SDS011;33605;48.822;8.796;2023-02-28T02:08:16;5.50;;;4.60;;
47844;SDS011;33605;48.822;8.796;2023-02-28T02:10:51;4.23;;;3.80;;
47844;SDS011;33605;48.822;8.796;2023-02-28T02:18:40;4.97;;;4.50;;
47844;SDS011;33605;48.822;8.796;2023-02-28T02:33:02;6.37;;;4.77;;
47844;SDS011;33605;48.822;8.796;2023-02-28T02:35:51;5.90;;;4.40;;
47844;SDS011;33605;48.822;8.796;2023-02-28T02:38:47;6.40;;;4.30;;
47844;SDS011;33605;48.822;8.796;2023-02-28T02:41:17;5.50;;;4.57;;
47844;SDS011;33605;48.822;8.796;2023-02-28T02:43:46;9.57;;;4.80;;
47844;SDS011;33605;48.822;8.796;2023-02-28T02:46:20;5.37;;;4.00;;
47844;SDS011;33605;48.822;8.796;2023-02-28T02:49:03;7.70;;;5.40;;
47844;SDS011;33605;48.822;8.796;2023-02-28T02:51:32;5.20;;;4.17;;
47844;SDS011;33605;48.822;8.796;2023-02-28T02:54:02;4.90;;;4.40;;
47844;SDS011;33605;48.822;8.796;2023-02-28T02:56:40;4.90;;;4.40;;
47844;SDS011;33605;48.822;8.796;2023-02-28T02:59:09;7.30;;;5.00;;
47844;SDS011;33605;48.822;8.796;2023-02-28T03:01:38;9.70;;;5.40;;
47844;SDS011;33605;48.822;8.796;2023-02-28T03:04:08;5.53;;;4.40;;
47844;SDS011;33605;48.822;8.796;2023-02-28T03:06:37;8.13;;;5.03;;
47844;SDS011;33605;48.822;8.796;2023-02-28T03:09:03;5.63;;;4.40;;
47844;SDS011;33605;48.822;8.796;2023-02-28T03:11:29;7.57;;;4.17;;
47844;SDS011;33605;48.822;8.796;2023-02-28T03:14:10;5.23;;;4.53;;
47844;SDS011;33605;48.822;8.796;2023-02-28T03:17:00;6.53;;;5.33;;
47844;SDS011;33605;48.822;8.796;2023-02-28T03:25:12;6.07;;;4.50;;
47844;SDS011;33605;48.822;8.796;2023-02-28T03:30:24;13.87;;;4.53;;
47844;SDS011;33605;48.822;8.796;2023-02-28T03:32:58;5.37;;;4.87;;
47844;SDS011;33605;48.822;8.796;2023-02-28T03:35:39;7.03;;;5.37;;
47844;SDS011;33605;48.822;8.796;2023-02-28T03:38:10;6.77;;;4.70;;
47844;SDS011;33605;48.822;8.796;2023-02-28T03:41:18;6.30;;;4.90;;
47844;SDS011;33605;48.822;8.796;2023-02-28T03:43:55;6.23;;;5.10;;
47844;SDS011;33605;48.822;8.796;2023-02-28T03:46:25;5.87;;;5.30;;
47844;SDS011;33605;48.822;8.796;2023-02-28T03:48:58;6.40;;;5.03;;
47844;SDS011;33605;48.822;8.796;2023-02-28T03:51:31;5.50;;;4.93;;
47844;SDS011;33605;48.822;8.796;2023-02-28T03:53:59;7.57;;;5.23;;
47844;SDS011;33605;48.822;8.796;2023-02-28T03:56:33;7.27;;;6.10;;
47844;SDS011;33605;48.822;8.796;2023-02-28T03:59:07;7.50;;;5.17;;
47844;SDS011;33605;48.822;8.796;2023-02-28T04:01:43;5.23;;;4.43;;
47844;SDS011;33605;48.822;8.796;2023-02-28T04:04:10;6.90;;;4.70;;
47844;SDS011;33605;48.822;8.796;2023-02-28T04:06:37;6.17;;;5.30;;
47844;SDS011;33605;48.822;8.796;2023-02-28T04:09:04;9.00;;;5.70;;
47844;SDS011;33605;48.822;8.796;2023-02-28T04:11:38;6.70;;;5.83;;
47844;SDS011;33605;48.822;8.796;2023-02-28T04:14:08;8.50;;;5.40;;
47844;SDS011;33605;48.822;8.796;2023-02-28T04:16:35;6.70;;;5.47;;
47844;SDS011;33605;48.822;8.796;2023-02-28T04:19:04;6.67;;;5.57;;
47844;SDS011;33605;48.822;8.796;2023-02-28T04:21:35;8.27;;;5.90;;
47844;SDS011;33605;48.822;8.796;2023-02-28T04:24:02;8.57;;;5.60;;
47844;SDS011;33605;48.822;8.796;2023-02-28T04:26:29;6.13;;;5.00;;
47844;SDS011;33605;48.822;8.796;2023-02-28T04:28:56;9.67;;;4.97;;
47844;SDS011;33605;48.822;8.796;2023-02-28T04:31:22;6.60;;;5.87;;
47844;SDS011;33605;48.822;8.796;2023-02-28T04:33:48;9.23;;;5.57;;
47844;SDS011;33605;48.822;8.796;2023-02-28T04:36:13;8.93;;;5.40;;
47844;SDS011;33605;48.822;8.796;2023-02-28T04:38:40;6.80;;;5.23;;
47844;SDS011;33605;48.822;8.796;2023-02-28T04:41:06;6.30;;;5.20;;
47844;SDS011;33605;48.822;8.796;2023-02-28T04:43:31;7.27;;;5.20;;
47844;SDS011;33605;48.822;8.796;2023-02-28T04:45:59;8.63;;;5.13;;
47844;SDS011;33605;48.822;8.796;2023-02-28T04:48:27;8.00;;;5.90;;
47844;SDS011;33605;48.822;8.796;2023-02-28T04:50:54;7.50;;;5.70;;
47844;SDS011;33605;48.822;8.796;2023-02-28T04:53:21;6.67;;;5.00;;
47844;SDS011;33605;48.822;8.796;2023-02-28T04:55:46;8.73;;;6.53;;
47844;SDS011;33605;48.822;8.796;2023-02-28T04:58:13;12.30;;;6.73;;
47844;SDS011;33605;48.822;8.796;2023-02-28T05:00:39;8.37;;;6.13;;
47844;SDS011;33605;48.822;8.796;2023-02-28T05:03:04;7.00;;;5.30;;
47844;SDS011;33605;48.822;8.796;2023-02-28T05:05:30;6.50;;;5.57;;
47844;SDS011;33605;48.822;8.796;2023-02-28T05:07:55;8.30;;;6.00;;
47844;SDS011;33605;48.822;8.796;2023-02-28T05:10:24;9.30;;;7.30;;
47844;SDS011;33605;48.822;8.796;2023-02-28T05:12:50;7.57;;;6.57;;
47844;SDS011;33605;48.822;8.796;2023-02-28T05:15:16;7.33;;;6.40;;
47844;SDS011;33605;48.822;8.796;2023-02-28T05:17:42;8.03;;;6.43;;
47844;SDS011;33605;48.822;8.796;2023-02-28T05:20:08;10.50;;;6.73;;
47844;SDS011;33605;48.822;8.796;2023-02-28T05:22:38;8.33;;;7.10;;
47844;SDS011;33605;48.822;8.796;2023-02-28T05:25:04;7.93;;;6.00;;
47844;SDS011;33605;48.822;8.796;2023-02-28T05:27:31;11.63;;;6.10;;
47844;SDS011;33605;48.822;8.796;2023-02-28T05:29:57;7.03;;;5.80;;
47844;SDS011;33605;48.822;8.796;2023-02-28T05:32:23;6.80;;;6.10;;
47844;SDS011;33605;48.822;8.796;2023-02-28T05:34:49;6.50;;;5.60;;
47844;SDS011;33605;48.822;8.796;2023-02-28T05:37:15;9.20;;;6.33;;
47844;SDS011;33605;48.822;8.796;2023-02-28T05:39:41;7.53;;;6.30;;
47844;SDS011;33605;48.822;8.796;2023-02-28T05:42:07;10.73;;;7.33;;
47844;SDS011;33605;48.822;8.796;2023-02-28T05:44:34;9.27;;;6.20;;
47844;SDS011;33605;48.822;8.796;2023-02-28T05:47:00;9.33;;;6.57;;
47844;SDS011;33605;48.822;8.796;2023-02-28T05:49:25;8.93;;;6.73;;
47844;SDS011;33605;48.822;8.796;2023-02-28T05:51:51;7.87;;;6.70;;
47844;SDS011;33605;48.822;8.796;2023-02-28T05:54:17;9.23;;;6.70;;
47844;SDS011;33605;48.822;8.796;2023-02-28T05:56:42;9.57;;;6.90;;
47844;SDS011;33605;48.822;8.796;2023-02-28T05:59:10;11.10;;;7.50;;
47844;SDS011;33605;48.822;8.796;2023-02-28T06:01:42;7.13;;;6.43;;
47844;SDS011;33605;48.822;8.796;2023-02-28T06:04:13;8.00;;;7.10;;
47844;SDS011;33605;48.822;8.796;2023-02-28T06:06:43;10.40;;;6.97;;
47844;SDS011;33605;48.822;8.796;2023-02-28T06:09:10;10.47;;;7.50;;
47844;SDS011;33605;48.822;8.796;2023-02-28T06:11:35;13.13;;;7.87;;
47844;SDS011;33605;48.822;8.796;2023-02-28T06:14:01;7.93;;;7.17;;
47844;SDS011;33605;48.822;8.796;2023-02-28T06:16:28;7.77;;;6.80;;
47844;SDS011;33605;48.822;8.796;2023-02-28T06:18:56;10.40;;;6.90;;
47844;SDS011;33605;48.822;8.796;2023-02-28T06:21:22;7.90;;;6.63;;
47844;SDS011;33605;48.822;8.796;2023-02-28T06:23:48;8.73;;;6.60;;
47844;SDS011;33605;48.822;8.796;2023-02-28T06:26:14;9.60;;;6.93;;
47844;SDS011;33605;48.822;8.796;2023-02-28T06:28:40;9.47;;;6.30;;
47844;SDS011;33605;48.822;8.796;2023-02-28T06:31:09;10.50;;;7.67;;
47844;SDS011;33605;48.822;8.796;2023-02-28T06:33:37;9.33;;;7.00;;
47844;SDS011;33605;48.822;8.796;2023-02-28T06:36:03;10.40;;;7.30;;
47844;SDS011;33605;48.822;8.796;2023-02-28T06:38:29;8.60;;;6.13;;
47844;SDS011;33605;48.822;8.796;2023-02-28T06:40:56;10.00;;;6.80;;
47844;SDS011;33605;48.822;8.796;2023-02-28T06:43:22;10.17;;;7.10;;
47844;SDS011;33605;48.822;8.796;2023-02-28T06:45:48;9.20;;;7.00;;
47844;SDS011;33605;48.822;8.796;2023-02-28T06:48:14;11.30;;;7.47;;
47844;SDS011;33605;48.822;8.796;2023-02-28T06:50:39;15.37;;;8.13;;
47844;SDS011;33605;48.822;8.796;2023-02-28T06:53:05;10.87;;;7.87;;
47844;SDS011;33605;48.822;8.796;2023-02-28T06:55:31;8.80;;;6.27;;
47844;SDS011;33605;48.822;8.796;2023-02-28T06:57:57;9.40;;;6.40;;
47844;SDS011;33605;48.822;8.796;2023-02-28T07:00:23;8.43;;;7.30;;
47844;SDS011;33605;48.822;8.796;2023-02-28T07:02:49;11.20;;;7.10;;
47844;SDS011;33605;48.822;8.796;2023-02-28T07:05:15;12.87;;;7.67;;
47844;SDS011;33605;48.822;8.796;2023-02-28T07:07:41;10.00;;;6.90;;
47844;SDS011;33605;48.822;8.796;2023-02-28T07:10:12;9.73;;;6.80;;
47844;SDS011;33605;48.822;8.796;2023-02-28T07:12:41;10.80;;;7.33;;
47844;SDS011;33605;48.822;8.796;2023-02-28T07:15:08;11.10;;;7.43;;
47844;SDS011;33605;48.822;8.796;2023-02-28T07:17:34;9.20;;;7.07;;
47844;SDS011;33605;48.822;8.796;2023-02-28T07:20:00;20.83;;;13.50;;
47844;SDS011;33605;48.822;8.796;2023-02-28T07:22:25;263.13;;;95.23;;
47844;SDS011;33605;48.822;8.796;2023-02-28T07:24:51;202.70;;;76.43;;
47844;SDS011;33605;48.822;8.796;2023-02-28T07:27:17;19.90;;;12.90;;
47844;SDS011;33605;48.822;8.796;2023-02-28T07:29:49;21.03;;;16.07;;
47844;SDS011;33605;48.822;8.796;2023-02-28T07:32:15;16.90;;;12.80;;
47844;SDS011;33605;48.822;8.796;2023-02-28T07:34:41;13.43;;;10.13;;
47844;SDS011;33605;48.822;8.796;2023-02-28T07:37:06;15.03;;;10.87;;
47844;SDS011;33605;48.822;8.796;2023-02-28T07:39:32;19.17;;;14.20;;
47844;SDS011;33605;48.822;8.796;2023-02-28T07:41:57;13.30;;;8.33;;
47844;SDS011;33605;48.822;8.796;2023-02-28T07:44:24;12.27;;;9.37;;
47844;SDS011;33605;48.822;8.796;2023-02-28T07:46:50;12.77;;;8.77;;
47844;SDS011;33605;48.822;8.796;2023-02-28T07:49:17;9.50;;;7.00;;
47844;SDS011;33605;48.822;8.796;2023-02-28T07:51:43;11.03;;;7.97;;
47844;SDS011;33605;48.822;8.796;2023-02-28T07:54:08;11.83;;;8.70;;
47844;SDS011;33605;48.822;8.796;2023-02-28T07:56:34;9.87;;;7.67;;
47844;SDS011;33605;48.822;8.796;2023-02-28T07:59:00;10.60;;;9.50;;
47844;SDS011;33605;48.822;8.796;2023-02-28T08:01:26;12.20;;;9.03;;
47844;SDS011;33605;48.822;8.796;2023-02-28T08:03:52;13.10;;;7.57;;
47844;SDS011;33605;48.822;8.796;2023-02-28T08:06:20;10.73;;;9.57;;
47844;SDS011;33605;48.822;8.796;2023-02-28T08:08:47;12.47;;;8.27;;
47844;SDS011;33605;48.822;8.796;2023-02-28T08:11:14;8.53;;;7.30;;
47844;SDS011;33605;48.822;8.796;2023-02-28T08:13:41;11.30;;;7.37;;
47844;SDS011;33605;48.822;8.796;2023-02-28T08:16:08;10.43;;;8.47;;
47844;SDS011;33605;48.822;8.796;2023-02-28T08:18:34;9.73;;;7.10;;
47844;SDS011;33605;48.822;8.796;2023-02-28T08:21:05;10.57;;;8.80;;
47844;SDS011;33605;48.822;8.796;2023-02-28T08:23:35;12.13;;;8.80;;
47844;SDS011;33605;48.822;8.796;2023-02-28T08:26:01;9.10;;;8.13;;
47844;SDS011;33605;48.822;8.796;2023-02-28T08:28:27;16.60;;;9.73;;
47844;SDS011;33605;48.822;8.796;2023-02-28T08:30:53;10.77;;;7.90;;
47844;SDS011;33605;48.822;8.796;2023-02-28T08:33:22;12.20;;;7.90;;
47844;SDS011;33605;48.822;8.796;2023-02-28T08:35:48;10.43;;;8.37;;
47844;SDS011;33605;48.822;8.796;2023-02-28T08:38:16;10.60;;;7.53;;
47844;SDS011;33605;48.822;8.796;2023-02-28T08:40:42;10.80;;;8.30;;
47844;SDS011;33605;48.822;8.796;2023-02-28T08:43:07;13.93;;;8.83;;
47844;SDS011;33605;48.822;8.796;2023-02-28T08:45:33;12.50;;;9.20;;
47844;SDS011;33605;48.822;8.796;2023-02-28T08:47:59;13.20;;;7.90;;
47844;SDS011;33605;48.822;8.796;2023-02-28T08:50:24;21.23;;;13.27;;
47844;SDS011;33605;48.822;8.796;2023-02-28T08:52:50;121.53;;;50.67;;
47844;SDS011;33605;48.822;8.796;2023-02-28T08:55:16;37.60;;;21.50;;
47844;SDS011;33605;48.822;8.796;2023-02-28T08:57:41;62.07;;;34.63;;
47844;SDS011;33605;48.822;8.796;2023-02-28T09:00:07;27.43;;;18.53;;
47844;SDS011;33605;48.822;8.796;2023-02-28T09:02:33;20.60;;;13.03;;
47844;SDS011;33605;48.822;8.796;2023-02-28T09:04:59;22.47;;;14.77;;
47844;SDS011;33605;48.822;8.796;2023-02-28T09:07:24;45.33;;;30.50;;
47844;SDS011;33605;48.822;8.796;2023-02-28T09:09:50;34.53;;;24.90;;
47844;SDS011;33605;48.822;8.796;2023-02-28T09:12:20;11.70;;;9.87;;
47844;SDS011;33605;48.822;8.796;2023-02-28T09:14:48;12.10;;;10.80;;
47844;SDS011;33605;48.822;8.796;2023-02-28T09:17:14;25.90;;;17.70;;
47844;SDS011;33605;48.822;8.796;2023-02-28T09:19:40;19.40;;;13.37;;
47844;SDS011;33605;48.822;8.796;2023-02-28T09:22:06;14.23;;;10.70;;
47844;SDS011;33605;48.822;8.796;2023-02-28T09:24:31;16.87;;;11.70;;
47844;SDS011;33605;48.822;8.796;2023-02-28T09:26:57;15.27;;;12.03;;
47844;SDS011;33605;48.822;8.796;2023-02-28T09:29:23;17.80;;;12.13;;
47844;SDS011;33605;48.822;8.796;2023-02-28T09:31:49;18.00;;;10.80;;
47844;SDS011;33605;48.822;8.796;2023-02-28T09:34:15;19.77;;;14.33;;
47844;SDS011;33605;48.822;8.796;2023-02-28T09:36:42;16.30;;;12.10;;
47844;SDS011;33605;48.822;8.796;2023-02-28T09:39:08;16.07;;;11.57;;
47844;SDS011;33605;48.822;8.796;2023-02-28T09:41:52;14.20;;;10.93;;
47844;SDS011;33605;48.822;8.796;2023-02-28T09:44:53;14.20;;;10.13;;
47844;SDS011;33605;48.822;8.796;2023-02-28T09:49:45;11.13;;;9.67;;
47844;SDS011;33605;48.822;8.796;2023-02-28T09:52:16;15.50;;;9.83;;
47844;SDS011;33605;48.822;8.796;2023-02-28T09:54:44;11.30;;;8.63;;
47844;SDS011;33605;48.822;8.796;2023-02-28T10:00:16;17.87;;;15.33;;
47844;SDS011;33605;48.822;8.796;2023-02-28T10:02:49;14.33;;;12.60;;
47844;SDS011;33605;48.822;8.796;2023-02-28T10:05:18;14.90;;;10.97;;
47844;SDS011;33605;48.822;8.796;2023-02-28T10:10:45;11.43;;;9.90;;
47844;SDS011;33605;48.822;8.796;2023-02-28T10:13:15;15.03;;;10.27;;
47844;SDS011;33605;48.822;8.796;2023-02-28T10:15:58;17.53;;;10.07;;
47844;SDS011;33605;48.822;8.796;2023-02-28T10:18:30;12.83;;;10.53;;
47844;SDS011;33605;48.822;8.796;2023-02-28T10:21:30;15.30;;;9.90;;
47844;SDS011;33605;48.822;8.796;2023-02-28T10:24:26;15.73;;;10.90;;
47844;SDS011;33605;48.822;8.796;2023-02-28T10:26:59;13.13;;;9.90;;
47844;SDS011;33605;48.822;8.796;2023-02-28T10:29:30;13.43;;;11.10;;
47844;SDS011;33605;48.822;8.796;2023-02-28T10:31:58;15.03;;;10.13;;
47844;SDS011;33605;48.822;8.796;2023-02-28T10:34:27;14.63;;;10.33;;
47844;SDS011;33605;48.822;8.796;2023-02-28T10:36:53;13.07;;;10.77;;
47844;SDS011;33605;48.822;8.796;2023-02-28T10:42:18;12.50;;;10.20;;
47844;SDS011;33605;48.822;8.796;2023-02-28T10:45:05;13.10;;;9.83;;
47844;SDS011;33605;48.822;8.796;2023-02-28T10:47:54;13.90;;;10.70;;
47844;SDS011;33605;48.822;8.796;2023-02-28T10:50:29;15.30;;;12.33;;
47844;SDS011;33605;48.822;8.796;2023-02-28T11:01:15;12.27;;;10.20;;
47844;SDS011;33605;48.822;8.796;2023-02-28T11:03:43;13.73;;;11.23;;
47844;SDS011;33605;48.822;8.796;2023-02-28T11:06:16;12.87;;;10.00;;
47844;SDS011;33605;48.822;8.796;2023-02-28T11:08:48;14.67;;;11.13;;
47844;SDS011;33605;48.822;8.796;2023-02-28T11:11:19;13.17;;;11.43;;
47844;SDS011;33605;48.822;8.796;2023-02-28T11:13:46;15.00;;;10.13;;
47844;SDS011;33605;48.822;8.796;2023-02-28T11:16:14;16.57;;;11.20;;
47844;SDS011;33605;48.822;8.796;2023-02-28T11:18:42;11.63;;;8.70;;
47844;SDS011;33605;48.822;8.796;2023-02-28T11:21:09;15.40;;;9.90;;
47844;SDS011;33605;48.822;8.796;2023-02-28T11:23:42;15.70;;;10.23;;
47844;SDS011;33605;48.822;8.796;2023-02-28T11:26:08;14.80;;;11.30;;
47844;SDS011;33605;48.822;8.796;2023-02-28T11:28:41;16.50;;;10.57;;
47844;SDS011;33605;48.822;8.796;2023-02-28T11:33:42;11.20;;;9.20;;
47844;SDS011;33605;48.822;8.796;2023-02-28T11:36:23;14.30;;;10.40;;
47844;SDS011;33605;48.822;8.796;2023-02-28T11:38:51;11.80;;;9.70;;
47844;SDS011;33605;48.822;8.796;2023-02-28T11:41:58;13.73;;;10.60;;
47844;SDS011;33605;48.822;8.796;2023-02-28T11:46:59;17.07;;;10.73;;
47844;SDS011;33605;48.822;8.796;2023-02-28T12:07:59;14.77;;;10.80;;
47844;SDS011;33605;48.822;8.796;2023-02-28T12:10:32;13.37;;;11.17;;
47844;SDS011;33605;48.822;8.796;2023-02-28T12:28:31;16.17;;;12.10;;
47844;SDS011;33605;48.822;8.796;2023-02-28T12:33:25;13.23;;;9.80;;
47844;SDS011;33605;48.822;8.796;2023-02-28T12:35:54;16.03;;;10.13;;
47844;SDS011;33605;48.822;8.796;2023-02-28T12:41:15;19.20;;;9.60;;
47844;SDS011;33605;48.822;8.796;2023-02-28T12:43:55;13.70;;;11.30;;
47844;SDS011;33605;48.822;8.796;2023-02-28T12:46:25;14.53;;;11.40;;
47844;SDS011;33605;48.822;8.796;2023-02-28T12:48:58;11.03;;;9.80;;
47844;SDS011;33605;48.822;8.796;2023-02-28T12:51:25;14.37;;;10.37;;
47844;SDS011;33605;48.822;8.796;2023-02-28T12:54:07;12.70;;;10.07;;
47844;SDS011;33605;48.822;8.796;2023-02-28T12:59:27;13.37;;;11.10;;
47844;SDS011;33605;48.822;8.796;2023-02-28T13:07:47;12.20;;;9.57;;
47844;SDS011;33605;48.822;8.796;2023-02-28T13:10:17;9.77;;;8.20;;
47844;SDS011;33605;48.822;8.796;2023-02-28T13:12:50;11.93;;;9.80;;
47844;SDS011;33605;48.822;8.796;2023-02-28T13:15:26;11.00;;;9.30;;
47844;SDS011;33605;48.822;8.796;2023-02-28T13:18:00;13.40;;;10.10;;
47844;SDS011;33605;48.822;8.796;2023-02-28T13:20:31;11.50;;;10.27;;
47844;SDS011;33605;48.822;8.796;2023-02-28T13:22:59;36.90;;;18.77;;
47844;SDS011;33605;48.822;8.796;2023-02-28T13:28:11;20.07;;;14.90;;
47844;SDS011;33605;48.822;8.796;2023-02-28T13:33:36;26.93;;;17.43;;
47844;SDS011;33605;48.822;8.796;2023-02-28T13:38:52;11.87;;;10.10;;
47844;SDS011;33605;48.822;8.796;2023-02-28T13:44:07;12.03;;;9.20;;
47844;SDS011;33605;48.822;8.796;2023-02-28T13:47:13;15.40;;;11.40;;
47844;SDS011;33605;48.822;8.796;2023-02-28T14:02:23;17.03;;;12.47;;
47844;SDS011;33605;48.822;8.796;2023-02-28T14:07:23;21.33;;;13.70;;
47844;SDS011;33605;48.822;8.796;2023-02-28T14:10:06;11.00;;;9.90;;
47844;SDS011;33605;48.822;8.796;2023-02-28T14:17:54;13.93;;;12.43;;
47844;SDS011;33605;48.822;8.796;2023-02-28T14:20:21;10.57;;;9.43;;
47844;SDS011;33605;48.822;8.796;2023-02-28T14:23:03;12.30;;;10.63;;
47844;SDS011;33605;48.822;8.796;2023-02-28T14:38:46;10.90;;;9.33;;
47844;SDS011;33605;48.822;8.796;2023-02-28T14:41:20;9.23;;;8.43;;
47844;SDS011;33605;48.822;8.796;2023-02-28T14:43:48;9.90;;;8.90;;
47844;SDS011;33605;48.822;8.796;2023-02-28T14:46:14;9.23;;;8.33;;
47844;SDS011;33605;48.822;8.796;2023-02-28T14:48:40;9.53;;;8.53;;
47844;SDS011;33605;48.822;8.796;2023-02-28T14:51:06;12.70;;;9.90;;
47844;SDS011;33605;48.822;8.796;2023-02-28T14:53:36;10.30;;;8.83;;
47844;SDS011;33605;48.822;8.796;2023-02-28T14:56:03;10.97;;;9.77;;
47844;SDS011;33605;48.822;8.796;2023-02-28T14:58:30;9.10;;;8.20;;
47844;SDS011;33605;48.822;8.796;2023-02-28T15:00:57;11.13;;;8.63;;
47844;SDS011;33605;48.822;8.796;2023-02-28T15:03:45;10.63;;;9.53;;
47844;SDS011;33605;48.822;8.796;2023-02-28T15:06:14;10.60;;;9.60;;
47844;SDS011;33605;48.822;8.796;2023-02-28T15:08:42;9.73;;;8.77;;
47844;SDS011;33605;48.822;8.796;2023-02-28T15:11:09;12.30;;;9.63;;
47844;SDS011;33605;48.822;8.796;2023-02-28T15:13:51;11.00;;;8.90;;
47844;SDS011;33605;48.822;8.796;2023-02-28T15:16:34;9.57;;;8.37;;
47844;SDS011;33605;48.822;8.796;2023-02-28T15:21:36;10.83;;;9.73;;
47844;SDS011;33605;48.822;8.796;2023-02-28T15:24:07;10.40;;;9.40;;
47844;SDS011;33605;48.822;8.796;2023-02-28T15:26:42;9.57;;;8.67;;
47844;SDS011;33605;48.822;8.796;2023-02-28T15:29:12;11.77;;;10.57;;
47844;SDS011;33605;48.822;8.796;2023-02-28T15:31:43;10.90;;;9.90;;
47844;SDS011;33605;48.822;8.796;2023-02-28T15:34:16;12.10;;;10.90;;
47844;SDS011;33605;48.822;8.796;2023-02-28T15:36:44;11.80;;;10.77;;
47844;SDS011;33605;48.822;8.796;2023-02-28T15:39:20;10.47;;;9.57;;
47844;SDS011;33605;48.822;8.796;2023-02-28T15:41:47;11.93;;;10.70;;
47844;SDS011;33605;48.822;8.796;2023-02-28T15:46:56;11.10;;;9.80;;
47844;SDS011;33605;48.822;8.796;2023-02-28T15:49:23;12.03;;;10.83;;
47844;SDS011;33605;48.822;8.796;2023-02-28T15:51:50;11.93;;;10.73;;
47844;SDS011;33605;48.822;8.796;2023-02-28T15:54:27;11.70;;;10.47;;
47844;SDS011;33605;48.822;8.796;2023-02-28T15:57:03;11.73;;;10.57;;
47844;SDS011;33605;48.822;8.796;2023-02-28T15:59:31;11.20;;;9.93;;
47844;SDS011;33605;48.822;8.796;2023-02-28T16:04:35;11.57;;;9.90;;
47844;SDS011;33605;48.822;8.796;2023-02-28T16:07:03;12.63;;;11.07;;
47844;SDS011;33605;48.822;8.796;2023-02-28T16:09:29;12.40;;;11.20;;
47844;SDS011;33605;48.822;8.796;2023-02-28T16:11:58;15.00;;;13.40;;
47844;SDS011;33605;48.822;8.796;2023-02-28T16:14:27;13.47;;;12.00;;
47844;SDS011;33605;48.822;8.796;2023-02-28T16:16:56;11.60;;;10.40;;
47844;SDS011;33605;48.822;8.796;2023-02-28T16:19:22;11.97;;;10.80;;
47844;SDS011;33605;48.822;8.796;2023-02-28T16:21:49;13.20;;;11.57;;
47844;SDS011;33605;48.822;8.796;2023-02-28T16:24:15;28.20;;;21.43;;
47844;SDS011;33605;48.822;8.796;2023-02-28T16:26:41;17.23;;;14.80;;
47844;SDS011;33605;48.822;8.796;2023-02-28T16:29:09;13.43;;;11.77;;
47844;SDS011;33605;48.822;8.796;2023-02-28T16:31:39;12.53;;;10.97;;
47844;SDS011;33605;48.822;8.796;2023-02-28T16:34:06;12.87;;;11.50;;
47844;SDS011;33605;48.822;8.796;2023-02-28T16:36:31;11.73;;;10.47;;
47844;SDS011;33605;48.822;8.796;2023-02-28T16:38:57;14.43;;;12.40;;
47844;SDS011;33605;48.822;8.796;2023-02-28T16:41:26;12.77;;;11.57;;
47844;SDS011;33605;48.822;8.796;2023-02-28T16:43:53;12.77;;;9.73;;
47844;SDS011;33605;48.822;8.796;2023-02-28T16:46:24;12.50;;;10.60;;
47844;SDS011;33605;48.822;8.796;2023-02-28T16:48:58;10.47;;;9.20;;
47844;SDS011;33605;48.822;8.796;2023-02-28T16:51:23;13.50;;;11.40;;
47844;SDS011;33605;48.822;8.796;2023-02-28T16:53:49;14.93;;;11.37;;
47844;SDS011;33605;48.822;8.796;2023-02-28T16:56:19;12.63;;;10.13;;
47844;SDS011;33605;48.822;8.796;2023-02-28T16:58:46;15.00;;;11.97;;
47844;SDS011;33605;48.822;8.796;2023-02-28T17:01:13;14.20;;;11.27;;
47844;SDS011;33605;48.822;8.796;2023-02-28T17:03:39;16.90;;;14.00;;
47844;SDS011;33605;48.822;8.796;2023-02-28T17:06:05;15.33;;;12.83;;
47844;SDS011;33605;48.822;8.796;2023-02-28T17:08:40;16.90;;;12.97;;
47844;SDS011;33605;48.822;8.796;2023-02-28T17:11:06;16.60;;;12.40;;
47844;SDS011;33605;48.822;8.796;2023-02-28T17:13:33;16.00;;;13.33;;
47844;SDS011;33605;48.822;8.796;2023-02-28T17:15:59;17.47;;;11.90;;
47844;SDS011;33605;48.822;8.796;2023-02-28T17:18:25;12.70;;;11.40;;